Time;durP1;ratioP1;P1;durP2;ratioP2;P2;SDS_P1;SDS_P2;PMS_P1;PMS_P2;Temp;Humidity;BMP_temperature;BMP_pressure;BME280_temperature;BME280_humidity;BME280_pressure;Samples;Min_cycle;Max_cycle;Signal;HPM_P1;HPM_P2
2021/11/04 00:01:17;;;;;;;21.25;13.95;;;;;;;11.39;92.70;98939.38;2900627;82;21026;-72
2021/11/04 00:05:19;;;;;;;24.85;15.50;;;;;;;11.40;93.05;98947.70;2900517;82;21089;-72
2021/11/04 00:09:21;;;;;;;20.25;14.60;;;;;;;11.46;93.25;98939.55;2899893;82;21053;-70
2021/11/04 00:13:24;;;;;;;20.23;14.93;;;;;;;11.48;94.42;98939.38;2900291;82;21000;-70
2021/11/04 00:17:26;;;;;;;21.93;14.20;;;;;;;11.40;95.60;98934.90;2900034;82;20963;-71
2021/11/04 00:21:28;;;;;;;21.85;13.40;;;;;;;11.47;95.35;98928.39;2900137;82;21633;-70
2021/11/04 00:25:30;;;;;;;24.43;15.72;;;;;;;11.45;96.17;98925.91;2899878;82;21069;-74
2021/11/04 00:29:32;;;;;;;20.27;14.70;;;;;;;11.62;94.89;98916.60;2899730;82;20991;-74
2021/11/04 00:33:36;;;;;;;17.02;14.63;;;;;;;11.70;94.56;98909.93;2899509;82;21042;-71
2021/11/04 00:37:38;;;;;;;21.97;14.45;;;;;;;11.78;94.26;98894.45;2899875;82;21025;-74
2021/11/04 00:41:40;;;;;;;17.45;14.13;;;;;;;11.83;93.47;98899.61;2899952;82;20994;-71
2021/11/04 00:45:42;;;;;;;20.92;12.40;;;;;;;11.86;93.18;98897.94;2899823;82;21045;-75
2021/11/04 00:49:43;;;;;;;20.62;13.55;;;;;;;11.91;92.82;98897.44;2899881;81;20994;-72
2021/11/04 00:53:45;;;;;;;18.87;13.28;;;;;;;11.99;92.56;98895.27;2899880;82;21625;-72
2021/11/04 00:57:48;;;;;;;19.90;11.95;;;;;;;11.95;92.34;98891.25;2899081;82;21049;-72
2021/11/04 01:01:50;;;;;;;16.73;11.53;;;;;;;11.96;91.95;98876.44;2899286;80;20972;-72
2021/11/04 01:05:52;;;;;;;13.30;10.30;;;;;;;11.98;92.00;98864.26;2899464;82;21050;-73
2021/11/04 01:09:54;;;;;;;19.15;11.57;;;;;;;11.98;91.88;98853.59;2899309;82;21021;-75
2021/11/04 01:13:56;;;;;;;18.65;11.53;;;;;;;12.01;91.50;98857.31;2899127;82;21085;-74
2021/11/04 01:17:58;;;;;;;13.78;10.63;;;;;;;12.04;91.42;98841.46;2899452;82;21010;-72
2021/11/04 01:22:00;;;;;;;24.75;13.03;;;;;;;12.05;91.41;98836.46;2899554;82;20997;-73
2021/11/04 01:26:01;;;;;;;19.55;12.68;;;;;;;12.08;91.19;98836.96;2900027;82;21021;-74
2021/11/04 01:30:08;;;;;;;20.27;12.68;;;;;;;12.13;90.86;98839.94;2899722;81;20983;-71
2021/11/04 01:34:11;;;;;;;16.93;12.18;;;;;;;12.12;90.82;98828.95;2899669;81;21046;-70
2021/11/04 01:38:17;;;;;;;19.65;12.70;;;;;;;12.08;91.02;98825.45;2894851;82;21030;-71
2021/11/04 01:42:21;;;;;;;17.35;12.40;;;;;;;12.00;91.23;98826.31;2899134;82;21014;-69
2021/11/04 01:46:23;;;;;;;17.10;12.20;;;;;;;12.00;91.45;98819.64;2899581;82;21093;-71
2021/11/04 01:50:25;;;;;;;17.30;10.43;;;;;;;11.99;91.58;98808.66;2899455;82;20943;-73
2021/11/04 01:54:26;;;;;;;20.30;11.95;;;;;;;11.96;91.93;98787.17;2899781;81;20971;-73
2021/11/04 01:58:28;;;;;;;20.30;11.95;;;;;;;11.97;91.99;98785.32;2899520;81;21101;-73
2021/11/04 02:02:38;;;;;;;17.65;11.57;;;;;;;12.01;91.80;98788.02;2899693;82;21066;-71
2021/11/04 02:07:01;;;;;;;16.62;12.78;;;;;;;12.02;91.60;98792.35;2899867;81;21078;-72
2021/11/04 02:11:14;;;;;;;15.05;12.28;;;;;;;11.99;91.42;98791.33;2899493;81;20998;-76
2021/11/04 02:15:16;;;;;;;18.92;12.78;;;;;;;11.97;91.19;98782.16;2899490;82;20994;-75
2021/11/04 02:19:26;;;;;;;15.78;11.57;;;;;;;11.95;91.26;98773.52;2898969;82;21030;-74
2021/11/04 02:23:52;;;;;;;21.20;13.53;;;;;;;11.90;91.55;98773.70;2897338;82;21071;-74
2021/11/04 02:28:01;;;;;;;15.40;12.03;;;;;;;11.91;91.74;98764.21;2899124;82;21092;-74
2021/11/04 02:32:03;;;;;;;17.55;11.45;;;;;;;11.85;91.87;98753.73;2899241;82;21014;-73
2021/11/04 02:36:07;;;;;;;17.92;11.88;;;;;;;11.83;92.12;98750.91;2899174;81;21089;-73
2021/11/04 02:40:10;;;;;;;23.38;13.18;;;;;;;11.80;92.19;98756.58;2899497;82;21002;-75
2021/11/04 02:44:12;;;;;;;20.15;13.08;;;;;;;11.80;92.36;98750.77;2857517;79;21091;-71
2021/11/04 02:48:21;;;;;;;23.02;13.75;;;;;;;11.77;92.64;98740.42;2789882;78;21379;-72
2021/11/04 02:52:20;;;;;;;20.92;13.40;;;;;;;11.72;93.00;98736.12;2844862;82;21055;-71
2021/11/04 02:56:22;;;;;;;18.92;14.00;;;;;;;11.68;93.78;98733.47;2852239;83;21451;-75
2021/11/04 03:00:23;;;;;;;16.35;14.07;;;;;;;11.70;94.06;98727.47;2846930;83;21023;-73
2021/11/04 03:04:26;;;;;;;17.45;11.85;;;;;;;11.67;94.51;98719.83;2846674;83;21003;-75
2021/11/04 03:08:30;;;;;;;22.98;14.38;;;;;;;11.68;94.92;98708.17;2845962;83;20992;-73
2021/11/04 03:12:32;;;;;;;16.60;13.08;;;;;;;11.70;95.32;98700.84;2846471;83;21043;-72
2021/11/04 03:16:39;;;;;;;16.50;12.82;;;;;;;11.72;95.54;98704.16;2846731;83;20992;-71
2021/11/04 03:20:41;;;;;;;22.52;12.93;;;;;;;11.69;96.14;98700.51;2846300;83;21134;-71
2021/11/04 03:24:43;;;;;;;21.93;15.78;;;;;;;11.73;95.98;98709.81;2846386;83;20980;-71
2021/11/04 03:28:46;;;;;;;21.00;14.18;;;;;;;11.70;96.56;98715.48;2846379;83;20975;-73
2021/11/04 03:32:49;;;;;;;20.97;12.85;;;;;;;11.75;96.63;98721.13;2846139;83;21027;-71
2021/11/04 03:36:53;;;;;;;20.70;14.55;;;;;;;11.71;97.23;98713.15;2846384;83;20984;-74
2021/11/04 03:40:58;;;;;;;19.70;15.60;;;;;;;11.74;97.30;98714.13;2846275;83;21042;-74
2021/11/04 03:45:01;;;;;;;21.27;15.68;;;;;;;11.73;97.78;98717.80;2846264;83;21046;-73
2021/11/04 03:49:03;;;;;;;21.57;14.75;;;;;;;11.72;98.37;98704.16;2822622;83;21556;-75
2021/11/04 03:53:06;;;;;;;18.70;14.30;;;;;;;11.76;98.69;98711.31;2804879;84;20984;-71
2021/11/04 03:57:08;;;;;;;25.57;16.50;;;;;;;11.65;99.87;98704.53;2805411;85;21027;-73
2021/11/04 04:01:10;;;;;;;25.23;16.97;;;;;;;11.62;100.00;98704.36;2805813;85;21011;-74
2021/11/04 04:05:12;;;;;;;23.20;16.77;;;;;;;11.57;100.00;98704.05;2805717;84;21011;-75
2021/11/04 04:09:14;;;;;;;23.15;17.48;;;;;;;11.54;100.00;98690.56;2805310;84;21061;-76
2021/11/04 04:13:17;;;;;;;21.23;15.95;;;;;;;11.57;100.00;98680.89;2805792;84;21003;-73
2021/11/04 04:17:20;;;;;;;27.87;17.52;;;;;;;11.53;100.00;98671.59;2806165;84;21003;-81
2021/11/04 04:21:24;;;;;;;30.85;18.92;;;;;;;11.54;100.00;98657.27;2804984;83;21015;-74
2021/11/04 04:25:25;;;;;;;20.52;17.37;;;;;;;11.54;100.00;98642.63;2804718;84;21027;-73
2021/11/04 04:29:28;;;;;;;21.60;16.52;;;;;;;11.50;100.00;98632.00;2804186;84;21047;-74
2021/11/04 04:33:29;;;;;;;24.30;16.27;;;;;;;11.56;100.00;98628.64;2804413;84;20960;-76
2021/11/04 04:37:31;;;;;;;23.05;17.40;;;;;;;11.56;100.00;98622.50;2804782;85;21114;-71
2021/11/04 04:41:33;;;;;;;26.87;18.05;;;;;;;11.63;100.00;98633.30;2804262;85;21105;-72
2021/11/04 04:45:34;;;;;;;25.12;16.20;;;;;;;11.62;100.00;98623.13;2804416;85;21039;-73
2021/11/04 04:49:36;;;;;;;20.02;16.00;;;;;;;11.63;100.00;98617.31;2838660;83;21098;-73
2021/11/04 04:53:37;;;;;;;21.87;14.10;;;;;;;11.63;100.00;98604.00;2860328;83;21050;-74
2021/11/04 04:57:39;;;;;;;27.55;18.10;;;;;;;11.66;100.00;98591.14;2859717;83;21034;-71
2021/11/04 05:01:41;;;;;;;25.60;16.45;;;;;;;11.71;100.00;98582.63;2860491;83;21304;-72
2021/11/04 05:05:42;;;;;;;26.20;18.00;;;;;;;11.73;100.00;98572.63;2860375;83;21046;-75
2021/11/04 05:09:44;;;;;;;25.10;15.53;;;;;;;11.71;99.82;98565.33;2860750;83;21082;-72
2021/11/04 05:13:46;;;;;;;19.42;16.60;;;;;;;11.72;99.68;98552.33;2860866;83;21063;-72
2021/11/04 05:17:50;;;;;;;26.30;16.85;;;;;;;11.78;99.26;98542.30;2860208;83;21062;-73
2021/11/04 05:21:52;;;;;;;24.45;16.17;;;;;;;11.79;99.00;98548.46;2859955;83;21050;-71
2021/11/04 05:25:53;;;;;;;18.50;15.20;;;;;;;11.80;98.71;98531.47;2860583;83;21026;-70
2021/11/04 05:29:56;;;;;;;27.40;17.50;;;;;;;11.76;98.70;98524.33;2860742;83;21018;-73
2021/11/04 05:33:57;;;;;;;25.05;15.63;;;;;;;11.72;98.67;98517.70;2860359;83;21310;-70
2021/11/04 05:37:59;;;;;;;23.47;17.48;;;;;;;11.67;98.62;98508.09;2860135;83;21038;-71
2021/11/04 05:42:00;;;;;;;23.40;17.17;;;;;;;11.70;98.47;98514.39;2859987;83;21099;-72
2021/11/04 05:46:02;;;;;;;23.87;19.00;;;;;;;11.66;98.90;98516.57;2860044;83;21066;-74
2021/11/04 05:50:05;;;;;;;24.65;17.80;;;;;;;11.65;98.75;98506.92;2860075;83;21022;-74
2021/11/04 05:54:07;;;;;;;27.00;18.87;;;;;;;11.66;98.70;98487.79;2859771;83;21066;-76
2021/11/04 05:58:08;;;;;;;24.70;18.73;;;;;;;11.67;98.55;98480.12;2860320;83;21011;-79
2021/11/04 06:02:10;;;;;;;29.30;20.27;;;;;;;11.67;99.34;98475.61;2860235;83;21018;-78
2021/11/04 06:06:11;;;;;;;32.65;20.97;;;;;;;11.71;99.69;98468.11;2860375;83;21019;-79
2021/11/04 06:10:13;;;;;;;28.45;18.82;;;;;;;11.67;99.61;98469.47;2860383;83;21101;-80
2021/11/04 06:14:15;;;;;;;23.70;18.73;;;;;;;11.67;99.06;98469.47;2859931;83;21031;-74
2021/11/04 06:18:17;;;;;;;25.30;21.17;;;;;;;11.66;98.94;98455.31;2860170;83;21102;-74
2021/11/04 06:22:19;;;;;;;24.85;20.27;;;;;;;11.67;98.77;98444.17;2860089;83;21007;-72
2021/11/04 06:26:20;;;;;;;28.55;21.82;;;;;;;11.66;98.64;98431.86;2860120;83;21054;-73
2021/11/04 06:30:22;;;;;;;27.80;23.30;;;;;;;11.68;98.64;98441.31;2860356;83;21031;-75
2021/11/04 06:34:24;;;;;;;30.85;23.50;;;;;;;11.71;98.23;98445.47;2860146;83;21099;-72
2021/11/04 06:38:25;;;;;;;30.10;21.45;;;;;;;11.73;98.67;98439.45;2860512;83;21062;-73
2021/11/04 06:42:27;;;;;;;28.35;19.80;;;;;;;11.74;98.26;98438.45;2860459;83;20952;-73
2021/11/04 06:46:32;;;;;;;28.25;20.00;;;;;;;11.71;98.20;98412.17;2860403;83;21034;-74
2021/11/04 06:50:34;;;;;;;27.20;20.68;;;;;;;11.74;98.14;98420.32;2841517;83;21086;-72
2021/11/04 06:54:38;;;;;;;28.55;20.70;;;;;;;11.71;97.81;98424.16;2834420;84;21102;-73
2021/11/04 06:58:43;;;;;;;28.50;21.30;;;;;;;11.71;97.62;98429.48;2746854;86;21339;-76
2021/11/04 07:02:50;;;;;;;29.10;20.85;;;;;;;11.73;97.82;98429.32;2793618;85;21070;-71
2021/11/04 07:07:01;;;;;;;28.32;21.23;;;;;;;11.72;98.05;98424.48;2817887;84;21159;-72
2021/11/04 07:10:59;;;;;;;21.12;18.92;;;;;;;11.68;98.01;98417.34;2792469;85;21092;-72
2021/11/04 07:15:01;;;;;;;32.53;19.40;;;;;;;11.66;97.53;98407.90;2794050;85;21118;-72
2021/11/04 07:19:03;;;;;;;27.00;19.00;;;;;;;11.69;97.73;98420.36;2794033;85;21063;-72
2021/11/04 07:23:08;;;;;;;26.42;17.42;;;;;;;11.76;97.48;98418.30;2794248;85;21048;-72
2021/11/04 07:27:37;;;;;;;20.73;16.43;;;;;;;11.78;97.20;98402.45;2794238;85;21070;-72
2021/11/04 07:31:42;;;;;;;24.82;18.48;;;;;;;11.79;96.85;98384.16;2793957;85;21019;-69
2021/11/04 07:35:44;;;;;;;22.52;16.27;;;;;;;11.87;96.29;98375.23;2793987;85;21118;-71
2021/11/04 07:39:46;;;;;;;23.75;17.95;;;;;;;11.91;95.88;98379.70;2794433;85;21027;-74
2021/11/04 07:43:50;;;;;;;21.25;17.40;;;;;;;11.94;95.92;98366.02;2798269;85;21045;-75
2021/11/04 07:47:52;;;;;;;29.63;18.55;;;;;;;11.96;96.17;98350.17;2802458;84;21359;-78
2021/11/04 07:51:58;;;;;;;24.20;17.62;;;;;;;11.95;96.84;98342.36;2861538;83;21046;-80
2021/11/04 07:55:58;;;;;;;32.42;18.27;;;;;;;11.93;97.21;98327.06;2865515;83;21055;-75
2021/11/04 08:00:04;;;;;;;24.50;17.12;;;;;;;11.88;97.53;98287.64;2862600;83;21020;-74
2021/11/04 08:04:05;;;;;;;21.12;16.60;;;;;;;11.83;97.90;98274.05;2811563;83;21079;-78
2021/11/04 08:08:09;;;;;;;27.02;18.10;;;;;;;11.78;98.85;98294.56;2861694;83;20993;-73
2021/11/04 08:12:10;;;;;;;24.30;17.82;;;;;;;11.81;98.85;98292.89;2866719;83;21115;-73
2021/11/04 08:16:12;;;;;;;19.30;14.98;;;;;;;11.78;99.41;98274.59;2811598;84;20993;-74
2021/11/04 08:20:14;;;;;;;27.22;18.20;;;;;;;11.71;99.67;98276.34;2862171;83;21023;-78
2021/11/04 08:24:16;;;;;;;24.95;17.30;;;;;;;11.74;99.75;98276.50;2867048;83;21036;-75
2021/11/04 08:28:18;;;;;;;22.05;16.52;;;;;;;11.70;100.00;98272.03;2811691;83;21052;-74
2021/11/04 08:32:20;;;;;;;22.52;18.30;;;;;;;11.68;100.00;98255.41;2861801;83;21080;-73
2021/11/04 08:36:22;;;;;;;26.62;17.37;;;;;;;11.80;100.00;98240.63;2866456;83;21021;-72
2021/11/04 08:40:24;;;;;;;21.90;15.63;;;;;;;11.89;100.00;98237.86;2811115;84;21414;-72
2021/11/04 08:44:27;;;;;;;23.50;17.45;;;;;;;11.97;100.00;98222.61;2861466;83;21035;-73
2021/11/04 08:48:28;;;;;;;35.52;25.92;;;;;;;11.95;99.71;98223.79;2865232;83;21524;-71
2021/11/04 08:52:30;;;;;;;26.40;18.17;;;;;;;11.88;100.00;98224.22;2852774;83;21019;-70
2021/11/04 08:56:34;;;;;;;18.48;15.28;;;;;;;11.82;100.00;98211.13;2852920;83;21022;-71
2021/11/04 09:00:37;;;;;;;23.22;15.48;;;;;;;11.76;100.00;98210.55;2852934;83;21054;-73
2021/11/04 09:04:42;;;;;;;26.25;18.52;;;;;;;11.74;100.00;98204.58;2853082;83;21046;-72
2021/11/04 09:08:44;;;;;;;25.77;18.15;;;;;;;11.79;100.00;98196.36;2852828;83;21054;-70
2021/11/04 09:12:46;;;;;;;21.07;18.45;;;;;;;11.79;100.00;98196.36;2853189;83;21397;-71
2021/11/04 09:16:51;;;;;;;25.45;18.48;;;;;;;11.82;100.00;98197.81;2852996;83;21049;-72
2021/11/04 09:20:51;;;;;;;25.17;17.20;;;;;;;11.86;100.00;98202.59;2852497;83;21284;-71
2021/11/04 09:24:54;;;;;;;21.25;17.00;;;;;;;11.85;100.00;98204.94;2853160;83;21066;-71
2021/11/04 09:28:55;;;;;;;20.45;16.55;;;;;;;11.91;100.00;98210.52;2853322;83;21030;-72
2021/11/04 09:32:57;;;;;;;21.42;15.83;;;;;;;11.92;100.00;98208.19;2853312;82;21085;-70
2021/11/04 09:36:59;;;;;;;23.25;16.95;;;;;;;11.88;100.00;98201.58;2853161;83;21023;-73
2021/11/04 09:41:01;;;;;;;24.98;15.72;;;;;;;11.98;100.00;98202.09;2853329;83;21011;-70
2021/11/04 09:45:07;;;;;;;29.37;19.50;;;;;;;11.92;100.00;98197.03;2853166;83;21129;-71
2021/11/04 09:49:08;;;;;;;22.73;17.25;;;;;;;12.01;100.00;98181.80;2850936;82;21107;-74
2021/11/04 09:53:10;;;;;;;22.85;18.75;;;;;;;12.03;100.00;98174.44;2840783;83;21066;-70
2021/11/04 09:57:15;;;;;;;22.27;15.35;;;;;;;12.12;100.00;98159.98;2840653;82;21019;-70
2021/11/04 10:01:26;;;;;;;20.08;16.93;;;;;;;12.14;100.00;98147.28;2840896;83;21043;-72
2021/11/04 10:05:27;;;;;;;23.62;16.65;;;;;;;12.20;100.00;98154.23;2840167;84;21342;-71
2021/11/04 10:09:30;;;;;;;18.95;16.57;;;;;;;12.25;100.00;98131.30;2840326;82;21638;-73
2021/11/04 10:13:32;;;;;;;22.22;15.55;;;;;;;12.34;100.00;98141.86;2840324;83;21015;-72
2021/11/04 10:17:37;;;;;;;20.60;15.85;;;;;;;12.40;100.00;98153.09;2840184;84;21334;-72
2021/11/04 10:21:43;;;;;;;20.17;17.05;;;;;;;12.32;100.00;98150.56;2840258;84;21043;-76
2021/11/04 10:25:46;;;;;;;20.35;18.15;;;;;;;12.37;100.00;98148.95;2840098;84;21077;-73
2021/11/04 10:29:47;;;;;;;19.23;15.55;;;;;;;12.59;100.00;98136.13;2839837;84;21059;-74
2021/11/04 10:33:52;;;;;;;16.32;13.85;;;;;;;12.68;100.00;98140.34;2840056;83;21070;-74
2021/11/04 10:37:54;;;;;;;23.85;16.45;;;;;;;12.88;100.00;98159.16;2840245;84;21075;-72
2021/11/04 10:41:57;;;;;;;21.85;12.70;;;;;;;12.86;100.00;98147.33;2840245;84;21066;-71
2021/11/04 10:46:19;;;;;;;23.42;16.87;;;;;;;12.95;100.00;98138.67;2839955;84;21063;-72
2021/11/04 10:50:42;;;;;;;25.30;15.78;;;;;;;12.92;100.00;98116.39;2845776;82;20995;-71
2021/11/04 10:54:48;;;;;;;24.37;16.12;;;;;;;12.89;100.00;98119.97;2853335;83;21011;-71
2021/11/04 10:59:06;;;;;;;20.40;16.95;;;;;;;13.00;100.00;98112.25;2853439;83;20994;-73
2021/11/04 11:03:12;;;;;;;19.80;14.68;;;;;;;13.27;100.00;98084.38;2850036;83;21073;-72
2021/11/04 11:07:15;;;;;;;33.15;20.68;;;;;;;13.45;100.00;98068.37;2853309;83;21066;-71
2021/11/04 11:11:20;;;;;;;39.07;23.53;;;;;;;13.54;100.00;98088.52;2853091;83;21051;-71
2021/11/04 11:15:23;;;;;;;41.02;29.42;;;;;;;13.50;100.00;98097.16;2853665;83;21022;-71
2021/11/04 11:19:44;;;;;;;39.67;27.62;;;;;;;13.55;100.00;98118.22;2853426;83;21022;-69
2021/11/04 11:23:46;;;;;;;96.47;57.98;;;;;;;13.61;100.00;98125.14;2853641;83;20999;-70
2021/11/04 11:27:52;;;;;;;23.83;17.30;;;;;;;13.80;100.00;98136.43;2853553;83;21018;-71
2021/11/04 11:31:56;;;;;;;5.92;5.35;;;;;;;14.03;98.83;98143.78;2853368;83;21059;-71
2021/11/04 11:36:17;;;;;;;8.55;4.67;;;;;;;14.12;92.59;98150.61;2853143;83;21074;-72
2021/11/04 11:40:19;;;;;;;4.72;4.33;;;;;;;14.25;91.42;98150.66;2853268;83;21047;-71
2021/11/04 11:45:01;;;;;;;8.08;4.35;;;;;;;14.44;90.48;98145.52;2853289;83;21054;-71
2021/11/04 11:49:17;;;;;;;5.17;3.25;;;;;;;14.46;87.81;98156.03;2853074;83;21117;-70
2021/11/04 11:53:34;;;;;;;4.50;2.50;;;;;;;14.68;89.30;98158.83;2840666;83;21074;-70
2021/11/04 11:57:38;;;;;;;3.27;3.00;;;;;;;14.82;84.77;98181.63;2836299;84;21023;-71
2021/11/04 12:01:46;;;;;;;4.03;2.60;;;;;;;14.54;79.99;98211.50;2840602;84;21075;-70
2021/11/04 12:05:48;;;;;;;4.45;2.52;;;;;;;14.17;80.09;98224.87;2840352;84;21067;-70
2021/11/04 12:09:49;;;;;;;4.03;1.85;;;;;;;13.99;81.01;98247.63;2840263;83;20987;-70
2021/11/04 12:13:51;;;;;;;3.42;2.10;;;;;;;13.85;81.41;98254.22;2840769;84;20952;-71
2021/11/04 12:18:14;;;;;;;5.85;2.20;;;;;;;13.53;79.96;98253.81;2840263;84;21331;-71
2021/11/04 12:22:28;;;;;;;4.37;2.65;;;;;;;13.34;80.33;98250.45;2840758;84;21011;-74
2021/11/04 12:26:37;;;;;;;2.60;1.85;;;;;;;12.97;81.17;98243.91;2840887;83;21000;-74
2021/11/04 12:30:39;;;;;;;1.22;1.12;;;;;;;12.80;80.83;98289.51;2841205;83;21046;-73
2021/11/04 12:35:01;;;;;;;2.37;1.77;;;;;;;12.68;81.41;98301.70;2840619;83;21007;-71
2021/11/04 12:39:26;;;;;;;4.17;2.67;;;;;;;12.59;82.63;98302.82;2840685;82;20976;-71
2021/11/04 12:43:35;;;;;;;1.40;1.30;;;;;;;12.62;83.59;98311.28;2840672;84;21035;-70
2021/11/04 12:47:34;;;;;;;3.10;1.77;;;;;;;12.70;82.59;98343.69;2838914;84;21063;-73
2021/11/04 12:51:47;;;;;;;2.65;1.75;;;;;;;12.61;81.90;98332.30;2848149;82;21055;-73
2021/11/04 12:55:53;;;;;;;1.60;1.50;;;;;;;12.50;81.62;98358.10;2853985;83;20995;-75
2021/11/04 13:00:03;;;;;;;2.58;1.55;;;;;;;12.44;81.38;98363.66;2853907;83;20991;-70
2021/11/04 13:04:22;;;;;;;2.50;1.87;;;;;;;12.43;81.76;98380.19;2853831;83;21057;-74
2021/11/04 13:08:24;;;;;;;3.35;1.50;;;;;;;12.40;81.30;98379.72;2853891;83;21069;-75
2021/11/04 13:12:44;;;;;;;2.02;1.60;;;;;;;12.40;81.26;98381.89;2853565;82;21661;-72
2021/11/04 13:16:43;;;;;;;2.00;1.05;;;;;;;12.32;81.03;98375.30;2852447;83;21058;-74
2021/11/04 13:20:51;;;;;;;2.08;1.62;;;;;;;12.11;77.61;98361.39;2853585;83;21042;-72
2021/11/04 13:24:58;;;;;;;4.03;3.12;;;;;;;11.98;77.66;98375.29;2850899;83;21046;-73
2021/11/04 13:29:00;;;;;;;2.30;1.27;;;;;;;11.96;78.23;98391.97;2853686;83;21071;-72
2021/11/04 13:33:04;;;;;;;1.67;0.90;;;;;;;11.89;78.57;98401.21;2853311;83;21006;-72
2021/11/04 13:37:18;;;;;;;1.98;0.88;;;;;;;11.86;79.39;98408.20;2853574;83;21057;-72
2021/11/04 13:41:42;;;;;;;1.50;0.72;;;;;;;11.96;80.21;98434.59;2853597;83;21023;-71
2021/11/04 13:45:45;;;;;;;0.78;0.75;;;;;;;12.07;79.34;98444.02;2852147;81;21019;-72
2021/11/04 13:50:04;;;;;;;0.45;0.45;;;;;;;12.52;78.22;98469.41;2853108;82;21095;-74
2021/11/04 13:54:41;;;;;;;0.60;0.60;;;;;;;12.73;73.58;98489.19;2822990;80;21062;-72
2021/11/04 13:58:44;;;;;;;0.68;0.68;;;;;;;12.84;72.79;98500.75;2848851;83;21031;-73
2021/11/04 14:02:50;;;;;;;0.50;0.42;;;;;;;13.00;72.00;98508.57;2853260;80;21043;-74
2021/11/04 14:06:53;;;;;;;;;;;;;;;12.96;69.44;98525.94;2835039;81;21066;-71
2021/11/04 14:11:14;;;;;;;1.70;0.90;;;;;;;12.87;69.44;98524.39;2853514;80;20241;-72
2021/11/04 14:15:22;;;;;;;1.62;0.62;;;;;;;12.68;69.69;98541.27;2853211;80;21042;-71
2021/11/04 14:19:28;;;;;;;0.88;0.70;;;;;;;12.45;69.51;98539.16;2874230;82;21032;-72
2021/11/04 14:23:32;;;;;;;0.80;0.65;;;;;;;12.37;70.23;98541.39;2836234;84;21058;-79
2021/11/04 14:27:34;;;;;;;0.95;0.60;;;;;;;12.13;70.60;98553.92;2836105;83;21015;-74
2021/11/04 14:31:40;;;;;;;2.62;0.88;;;;;;;11.91;70.94;98569.70;2836144;83;21055;-71
2021/11/04 14:35:42;;;;;;;0.55;0.55;;;;;;;11.76;71.58;98568.28;2836094;84;21075;-74
2021/11/04 14:39:43;;;;;;;0.50;0.50;;;;;;;11.62;71.09;98574.38;2836386;83;20995;-76
2021/11/04 14:43:45;;;;;;;0.55;0.42;;;;;;;11.47;71.43;98576.92;2837741;83;21027;-76
2021/11/04 14:47:47;;;;;;;0.90;0.80;;;;;;;11.42;72.00;98592.11;2850642;83;20994;-76
2021/11/04 14:51:49;;;;;;;0.57;0.37;;;;;;;11.41;72.71;98604.58;2853282;83;21019;-77
2021/11/04 14:55:51;;;;;;;1.42;0.93;;;;;;;11.35;72.98;98601.77;2858327;83;21058;-76
2021/11/04 14:59:54;;;;;;;1.35;0.78;;;;;;;11.32;73.36;98610.11;2858555;82;20968;-75
2021/11/04 15:03:57;;;;;;;0.98;0.75;;;;;;;11.34;73.37;98614.75;2858041;82;21031;-74
2021/11/04 15:08:00;;;;;;;1.55;0.98;;;;;;;11.37;74.11;98617.91;2858485;83;21011;-75
2021/11/04 15:12:03;;;;;;;1.50;1.00;;;;;;;11.39;74.17;98632.36;2858980;82;21043;-72
2021/11/04 15:16:07;;;;;;;2.47;1.52;;;;;;;11.41;74.43;98637.86;2857946;82;21059;-74
2021/11/04 15:20:11;;;;;;;3.98;2.35;;;;;;;11.37;74.43;98650.34;2858787;82;21039;-74
2021/11/04 15:24:13;;;;;;;3.55;2.15;;;;;;;11.39;74.66;98661.64;2858806;83;21075;-74
2021/11/04 15:28:16;;;;;;;2.60;1.82;;;;;;;11.39;74.49;98658.98;2857810;83;21047;-74
2021/11/04 15:32:19;;;;;;;1.60;1.15;;;;;;;11.38;74.36;98658.17;2858554;83;21067;-75
2021/11/04 15:36:20;;;;;;;2.12;0.82;;;;;;;11.41;74.35;98657.01;2858488;82;21039;-72
2021/11/04 15:40:22;;;;;;;1.27;0.70;;;;;;;11.33;72.76;98661.01;2858467;83;21078;-75
2021/11/04 15:44:24;;;;;;;1.82;1.12;;;;;;;11.39;72.16;98658.50;2861593;82;21071;-75
2021/11/04 15:48:26;;;;;;;1.15;0.93;;;;;;;11.39;72.38;98657.66;2852899;83;21031;-68
2021/11/04 15:52:27;;;;;;;1.47;0.75;;;;;;;11.40;72.01;98658.02;2853521;82;21023;-73
2021/11/04 15:56:30;;;;;;;2.42;1.40;;;;;;;11.47;71.84;98662.13;2887266;82;21032;-74
2021/11/04 16:00:31;;;;;;;1.85;1.07;;;;;;;11.47;72.22;98669.63;2853640;83;21019;-74
2021/11/04 16:04:33;;;;;;;1.55;0.90;;;;;;;11.50;72.03;98666.62;2886953;82;21005;-71
2021/11/04 16:08:35;;;;;;;1.02;0.60;;;;;;;11.51;72.32;98677.59;2853800;83;21026;-70
2021/11/04 16:12:36;;;;;;;1.92;1.02;;;;;;;11.50;72.76;98675.13;2886973;82;21052;-72
2021/11/04 16:16:39;;;;;;;2.12;1.30;;;;;;;11.44;72.50;98688.61;2853937;83;21042;-74
2021/11/04 16:20:41;;;;;;;2.12;1.82;;;;;;;11.42;72.54;98686.62;2888025;82;20969;-73
2021/11/04 16:24:43;;;;;;;3.42;3.02;;;;;;;11.39;72.94;98694.92;2855251;82;21004;-73
2021/11/04 16:28:45;;;;;;;7.08;4.53;;;;;;;11.47;72.36;98696.73;2797485;84;20999;-70
2021/11/04 16:32:47;;;;;;;7.45;4.90;;;;;;;11.44;72.76;98712.58;2836030;83;21042;-75
2021/11/04 16:37:12;;;;;;;8.00;4.28;;;;;;;11.50;73.62;98717.20;2797451;85;21086;-76
2021/11/04 16:41:14;;;;;;;14.53;7.58;;;;;;;11.47;73.09;98719.38;2832645;83;20949;-71
2021/11/04 16:45:19;;;;;;;9.38;4.12;;;;;;;11.35;73.54;98726.88;2798194;83;21007;-73
2021/11/04 16:49:23;;;;;;;5.72;2.40;;;;;;;11.40;73.97;98729.38;2836048;82;21039;-76
2021/11/04 16:53:32;;;;;;;2.02;1.82;;;;;;;11.42;74.56;98738.02;2776378;84;21068;-75
2021/11/04 16:57:35;;;;;;;2.95;1.82;;;;;;;11.40;74.86;98751.19;2793944;83;21004;-74
2021/11/04 17:01:37;;;;;;;1.98;1.62;;;;;;;11.43;75.14;98748.19;2793735;84;21071;-74
2021/11/04 17:05:41;;;;;;;4.92;3.25;;;;;;;11.38;75.46;98759.82;2793981;84;21098;-72
2021/11/04 17:09:43;;;;;;;2.67;1.92;;;;;;;11.39;75.10;98770.31;2793853;84;20964;-74
2021/11/04 17:13:44;;;;;;;5.75;2.72;;;;;;;11.31;73.99;98778.33;2793362;84;21034;-75
2021/11/04 17:17:47;;;;;;;1.15;0.90;;;;;;;11.39;75.09;98796.94;2793461;84;21093;-72
2021/11/04 17:21:49;;;;;;;4.50;3.22;;;;;;;11.37;72.91;98804.75;2793752;84;21075;-72
2021/11/04 17:25:52;;;;;;;8.28;5.35;;;;;;;11.41;73.83;98819.41;2793582;84;21118;-72
2021/11/04 17:29:54;;;;;;;4.97;3.92;;;;;;;11.24;75.78;98833.20;2793656;83;20992;-70
2021/11/04 17:33:56;;;;;;;4.87;3.00;;;;;;;11.26;75.40;98838.70;2793937;84;21039;-74
2021/11/04 17:37:58;;;;;;;4.97;3.37;;;;;;;11.26;75.31;98848.02;2793743;84;20992;-72
2021/11/04 17:42:00;;;;;;;8.83;4.95;;;;;;;11.18;75.51;98844.01;2802076;81;21080;-73
2021/11/04 17:55:18;;;;;;;6.17;3.77;;;;;;;10.99;75.40;98872.59;2764478;81;73836;-74
2021/11/04 17:59:20;;;;;;;4.97;3.15;;;;;;;10.94;75.52;98869.59;2826386;84;21052;-73
2021/11/04 18:03:22;;;;;;;3.15;1.67;;;;;;;10.83;75.44;98884.55;2826636;82;21012;-74
2021/11/04 18:07:24;;;;;;;6.62;3.20;;;;;;;10.71;75.69;98877.36;2826268;82;21055;-73
2021/11/04 18:11:26;;;;;;;4.80;3.52;;;;;;;10.69;75.56;98886.82;2826477;82;21015;-74
2021/11/04 18:15:29;;;;;;;5.20;3.15;;;;;;;10.62;76.43;98883.15;2826446;82;21044;-70
2021/11/04 18:19:31;;;;;;;6.53;3.47;;;;;;;10.59;75.99;98882.12;2826174;84;21015;-70
2021/11/04 18:23:33;;;;;;;7.75;4.25;;;;;;;10.56;75.62;98883.29;2826132;83;21036;-73
2021/11/04 18:27:35;;;;;;;3.40;3.00;;;;;;;10.60;75.88;98889.61;2826415;83;21000;-77
2021/11/04 18:31:37;;;;;;;5.78;2.90;;;;;;;10.54;76.26;98892.41;2826388;84;20977;-78
2021/11/04 18:35:38;;;;;;;2.35;1.92;;;;;;;10.42;75.87;98891.38;2826611;83;20988;-72
2021/11/04 18:39:41;;;;;;;2.75;1.80;;;;;;;10.45;75.85;98894.70;2826217;82;21033;-72
2021/11/04 18:43:44;;;;;;;2.50;1.27;;;;;;;10.35;76.27;98890.30;2805451;84;21083;-75
2021/11/04 18:47:46;;;;;;;4.17;2.00;;;;;;;10.40;76.00;98902.64;2826560;83;21056;-76
2021/11/04 18:51:51;;;;;;;1.37;1.27;;;;;;;10.33;75.90;98917.53;2826113;83;21031;-75
2021/11/04 18:55:53;;;;;;;5.53;1.80;;;;;;;10.41;75.01;98924.23;2838284;84;21043;-73
2021/11/04 18:59:55;;;;;;;1.90;1.40;;;;;;;10.53;75.25;98937.27;2888688;82;21037;-74